Time;durP1;ratioP1;P1;durP2;ratioP2;P2;SDS_P1;SDS_P2;PMS_P1;PMS_P2;Temp;Humidity;BMP_temperature;BMP_pressure;BME280_temperature;BME280_humidity;BME280_pressure;Samples;Min_cycle;Max_cycle;Signal;HPM_P1;HPM_P2
2021/10/13 00:00:17;;;;;;;3.20;2.67;;;10.90;99.90;;;;;;5072228;28;20206;-76
2021/10/13 00:02:44;;;;;;;5.37;3.00;;;10.90;99.90;;;;;;5071793;28;20203;-76
2021/10/13 00:05:12;;;;;;;4.73;2.93;;;10.90;99.90;;;;;;5072071;28;20251;-76
2021/10/13 00:07:39;;;;;;;5.53;2.60;;;10.80;99.90;;;;;;5071920;28;20241;-76
2021/10/13 00:10:07;;;;;;;6.63;3.67;;;10.90;99.90;;;;;;5072085;28;20202;-76
2021/10/13 00:12:34;;;;;;;5.27;3.10;;;10.80;99.90;;;;;;5071231;28;20750;-78
2021/10/13 00:15:02;;;;;;;3.97;3.47;;;10.70;99.90;;;;;;5072050;28;20221;-76
2021/10/13 00:17:29;;;;;;;4.93;2.50;;;10.70;99.90;;;;;;5070956;28;20662;-76
2021/10/13 00:19:57;;;;;;;5.83;3.30;;;10.70;99.90;;;;;;5072130;28;20207;-78
2021/10/13 00:22:25;;;;;;;3.53;2.40;;;10.60;99.90;;;;;;5069818;28;20210;-77
2021/10/13 00:24:52;;;;;;;3.97;2.70;;;10.60;1.00;;;;;;5071065;28;20202;-77
2021/10/13 00:27:19;;;;;;;3.67;2.60;;;10.70;1.00;;;;;;5071629;28;20260;-74
2021/10/13 00:29:46;;;;;;;7.20;3.10;;;10.70;1.00;;;;;;5071251;28;20199;-74
2021/10/13 00:32:13;;;;;;;3.47;2.67;;;10.60;1.00;;;;;;5071404;28;20252;-74
2021/10/13 00:34:40;;;;;;;3.43;2.40;;;10.50;1.00;;;;;;5077112;28;20210;-74
2021/10/13 00:37:07;;;;;;;5.23;3.33;;;10.50;1.00;;;;;;5091578;28;20213;-74
2021/10/13 00:39:36;;;;;;;3.27;2.97;;;10.50;1.00;;;;;;5091336;28;20372;-75
2021/10/13 00:42:03;;;;;;;5.17;3.10;;;10.40;1.00;;;;;;5091428;28;20266;-75
2021/10/13 00:44:30;;;;;;;5.00;3.50;;;10.40;1.00;;;;;;5083009;28;20206;-74
2021/10/13 00:47:00;;;;;;;4.10;3.00;;;10.40;1.00;;;;;;5086407;28;20643;-73
2021/10/13 00:49:27;;;;;;;4.10;3.07;;;10.40;1.00;;;;;;5091769;28;20201;-73
2021/10/13 00:51:54;;;;;;;5.67;3.30;;;10.40;1.00;;;;;;5091704;28;20673;-73
2021/10/13 00:54:24;;;;;;;7.43;3.50;;;10.30;1.00;;;;;;5091371;28;20254;-72
2021/10/13 00:56:53;;;;;;;7.57;2.90;;;10.20;1.00;;;;;;5090923;28;20206;-73
2021/10/13 00:59:20;;;;;;;6.53;2.73;;;10.20;1.00;;;;;;5091128;28;20209;-73
2021/10/13 01:01:52;;;;;;;5.77;3.13;;;10.20;1.00;;;;;;5090653;28;20262;-73
2021/10/13 01:04:32;;;;;;;3.83;2.77;;;10.10;1.00;;;;;;5091291;28;20239;-73
2021/10/13 01:07:09;;;;;;;4.37;3.17;;;10.10;1.00;;;;;;5091575;28;20205;-73
2021/10/13 01:09:42;;;;;;;4.47;2.53;;;10.00;1.00;;;;;;5090544;28;20209;-74
2021/10/13 01:12:21;;;;;;;3.37;2.80;;;10.10;1.00;;;;;;5091129;28;20244;-74
2021/10/13 01:14:56;;;;;;;9.93;3.20;;;10.10;1.00;;;;;;5090345;28;20266;-73
2021/10/13 01:17:30;;;;;;;5.23;2.80;;;9.90;1.00;;;;;;5091192;28;20201;-72
2021/10/13 01:20:03;;;;;;;4.30;3.00;;;9.90;1.00;;;;;;5091530;28;20205;-72
2021/10/13 01:22:57;;;;;;;4.40;2.93;;;9.80;1.00;;;;;;5090495;28;20201;-72
2021/10/13 01:25:40;;;;;;;3.67;3.00;;;9.80;1.00;;;;;;5090546;28;20197;-72
2021/10/13 01:28:12;;;;;;;5.67;3.17;;;9.80;1.00;;;;;;5090750;28;20213;-72
2021/10/13 01:30:43;;;;;;;5.80;3.30;;;9.80;1.00;;;;;;5090386;28;20708;-72
2021/10/13 01:33:18;;;;;;;5.07;3.33;;;9.70;1.00;;;;;;5090710;28;20297;-73
2021/10/13 01:35:48;;;;;;;4.97;3.30;;;9.70;1.00;;;;;;5090657;28;20213;-72
2021/10/13 01:38:19;;;;;;;3.40;3.07;;;9.70;1.00;;;;;;5090306;28;20278;-72
2021/10/13 01:40:48;;;;;;;4.80;3.00;;;9.60;1.00;;;;;;5090634;28;20201;-75
2021/10/13 01:43:19;;;;;;;3.60;2.50;;;9.70;1.00;;;;;;5090426;28;20205;-75
2021/10/13 01:45:50;;;;;;;4.00;3.23;;;9.70;1.00;;;;;;5090311;28;20251;-74
2021/10/13 01:48:18;;;;;;;3.10;2.67;;;9.70;1.00;;;;;;5090555;28;20270;-74
2021/10/13 01:50:47;;;;;;;4.63;3.03;;;9.70;1.00;;;;;;5090310;28;20209;-74
2021/10/13 01:53:16;;;;;;;7.53;2.83;;;9.80;1.00;;;;;;5090644;28;20248;-74
2021/10/13 01:55:46;;;;;;;4.40;2.77;;;9.90;1.00;;;;;;5089751;28;20206;-74
2021/10/13 01:58:16;;;;;;;4.67;2.53;;;9.80;1.00;;;;;;5090330;28;20251;-74
2021/10/13 02:00:47;;;;;;;5.27;2.90;;;9.70;1.00;;;;;;5090086;28;20209;-70
2021/10/13 02:03:15;;;;;;;7.60;2.73;;;9.70;1.00;;;;;;5090438;28;20201;-74
2021/10/13 02:05:43;;;;;;;8.27;3.27;;;9.60;1.00;;;;;;5089926;28;20201;-74
2021/10/13 02:08:14;;;;;;;7.27;3.70;;;9.60;1.00;;;;;;5090251;28;20225;-75
2021/10/13 02:10:44;;;;;;;3.07;2.53;;;9.60;1.00;;;;;;5089856;28;22002;-74
2021/10/13 02:13:12;;;;;;;4.37;3.27;;;9.60;1.00;;;;;;5090412;28;20205;-74
2021/10/13 02:15:41;;;;;;;6.40;3.20;;;9.60;1.00;;;;;;5090057;28;20255;-74
2021/10/13 02:18:14;;;;;;;6.70;2.93;;;9.60;1.00;;;;;;5090380;28;20267;-74
2021/10/13 02:20:43;;;;;;;3.83;2.60;;;9.50;1.00;;;;;;5089941;28;20252;-74
2021/10/13 02:23:12;;;;;;;8.57;3.17;;;9.50;1.00;;;;;;5090603;28;20270;-75
2021/10/13 02:25:42;;;;;;;7.23;2.93;;;9.40;1.00;;;;;;5090142;28;20213;-74
2021/10/13 02:28:13;;;;;;;4.50;2.97;;;9.50;1.00;;;;;;5090241;28;20306;-74
2021/10/13 02:30:41;;;;;;;6.37;2.83;;;9.60;1.00;;;;;;5090057;28;20753;-75
2021/10/13 02:33:09;;;;;;;4.97;2.77;;;9.50;1.00;;;;;;5090133;28;20202;-75
2021/10/13 02:35:36;;;;;;;4.53;3.10;;;9.40;1.00;;;;;;5089971;28;20742;-75
2021/10/13 02:38:04;;;;;;;4.20;3.40;;;9.40;1.00;;;;;;5092618;28;20293;-75
2021/10/13 02:40:31;;;;;;;4.87;3.83;;;9.40;1.00;;;;;;5093892;28;20259;-75
2021/10/13 02:42:58;;;;;;;8.37;3.30;;;9.20;1.00;;;;;;5090394;28;20262;-75
2021/10/13 02:45:25;;;;;;;4.90;3.73;;;9.20;1.00;;;;;;5094185;28;20198;-74
2021/10/13 02:47:55;;;;;;;4.50;3.40;;;9.10;1.00;;;;;;5093333;28;20623;-74
2021/10/13 02:50:28;;;;;;;4.63;4.17;;;9.10;1.00;;;;;;5089936;28;20736;-74
2021/10/13 02:53:02;;;;;;;8.27;3.53;;;9.20;1.00;;;;;;5084333;28;20255;-75
2021/10/13 02:55:34;;;;;;;5.80;3.43;;;9.20;1.00;;;;;;5093839;28;20274;-75
2021/10/13 02:58:07;;;;;;;5.93;3.10;;;9.30;1.00;;;;;;5093307;28;20205;-74
2021/10/13 03:00:36;;;;;;;4.70;3.40;;;9.30;1.00;;;;;;5093203;28;20259;-74
2021/10/13 03:03:08;;;;;;;5.60;2.80;;;9.30;1.00;;;;;;5093377;28;20677;-74
2021/10/13 03:05:38;;;;;;;5.97;3.70;;;9.20;1.00;;;;;;5092955;28;20255;-74
2021/10/13 03:08:12;;;;;;;4.60;3.77;;;9.10;1.00;;;;;;5093572;28;20225;-73
2021/10/13 03:10:41;;;;;;;3.53;3.23;;;9.20;1.00;;;;;;5092843;28;20206;-74
2021/10/13 03:13:08;;;;;;;3.97;3.17;;;9.20;1.00;;;;;;5093423;28;20661;-74
2021/10/13 03:15:36;;;;;;;4.90;3.43;;;9.30;1.00;;;;;;5092994;28;20209;-73
2021/10/13 03:18:04;;;;;;;4.67;3.20;;;9.30;1.00;;;;;;5093604;28;20213;-73
2021/10/13 03:20:32;;;;;;;3.80;3.00;;;9.30;1.00;;;;;;5093116;28;20262;-74
2021/10/13 03:23:02;;;;;;;6.77;3.50;;;9.20;1.00;;;;;;5093523;28;20262;-74
2021/10/13 03:25:31;;;;;;;5.07;3.97;;;9.20;1.00;;;;;;5092997;28;20206;-73
2021/10/13 03:27:58;;;;;;;6.97;3.10;;;9.10;1.00;;;;;;5093035;28;20201;-74
2021/10/13 03:30:25;;;;;;;4.40;3.10;;;9.00;1.00;;;;;;5093680;28;20254;-74
2021/10/13 03:32:53;;;;;;;4.17;3.30;;;8.90;1.00;;;;;;5092393;28;20201;-76
2021/10/13 03:35:27;;;;;;;5.67;3.93;;;8.70;1.00;;;;;;5093046;28;20213;-76
2021/10/13 03:37:57;;;;;;;4.47;3.80;;;8.70;1.00;;;;;;5092719;28;20376;-76
2021/10/13 03:40:26;;;;;;;4.27;3.03;;;8.70;1.00;;;;;;5092888;28;20205;-76
2021/10/13 03:42:53;;;;;;;4.47;3.10;;;8.60;1.00;;;;;;5092224;28;20675;-75
2021/10/13 03:45:21;;;;;;;8.07;2.93;;;8.70;1.00;;;;;;5092664;28;20258;-76
2021/10/13 03:47:49;;;;;;;6.77;3.53;;;8.70;1.00;;;;;;5092106;28;20637;-75
2021/10/13 03:50:18;;;;;;;7.60;3.07;;;8.70;1.00;;;;;;5092369;28;20571;-76
2021/10/13 03:52:46;;;;;;;8.03;3.60;;;8.70;1.00;;;;;;5092719;28;20209;-75
2021/10/13 03:55:15;;;;;;;5.17;3.30;;;8.60;1.00;;;;;;5092074;28;20205;-75
2021/10/13 03:57:44;;;;;;;8.07;3.10;;;8.60;1.00;;;;;;5092141;28;20205;-76
2021/10/13 04:00:13;;;;;;;3.97;3.57;;;8.50;1.00;;;;;;5092545;28;20689;-75
2021/10/13 04:02:40;;;;;;;5.37;3.07;;;8.50;1.00;;;;;;5091967;28;20255;-75
2021/10/13 04:05:08;;;;;;;5.67;3.80;;;8.50;1.00;;;;;;5092694;28;20254;-75
2021/10/13 04:07:36;;;;;;;5.30;3.30;;;8.50;1.00;;;;;;5091645;28;20685;-75
2021/10/13 04:10:05;;;;;;;6.23;3.17;;;8.40;1.00;;;;;;5080632;28;20229;-75
2021/10/13 04:12:33;;;;;;;4.07;3.37;;;8.50;1.00;;;;;;5089472;28;20254;-75
2021/10/13 04:15:02;;;;;;;5.87;3.17;;;8.50;1.00;;;;;;5092332;28;20209;-74
2021/10/13 04:17:29;;;;;;;6.27;3.90;;;8.40;1.00;;;;;;5089049;28;20201;-74
2021/10/13 04:19:56;;;;;;;8.03;3.53;;;8.50;1.00;;;;;;5081456;28;20266;-73
2021/10/13 04:22:23;;;;;;;4.53;3.40;;;8.50;1.00;;;;;;5091848;28;20213;-75
2021/10/13 04:24:50;;;;;;;4.83;4.33;;;8.40;1.00;;;;;;5091379;28;20680;-76
2021/10/13 04:27:17;;;;;;;4.93;3.07;;;8.50;1.00;;;;;;5091920;28;20672;-77
2021/10/13 04:29:44;;;;;;;5.40;3.13;;;8.50;1.00;;;;;;5091249;28;20255;-77
2021/10/13 04:32:12;;;;;;;5.33;3.53;;;8.50;1.00;;;;;;5092055;28;20245;-77
2021/10/13 04:34:39;;;;;;;7.80;3.90;;;8.60;1.00;;;;;;5091208;28;20677;-77
2021/10/13 04:37:07;;;;;;;4.97;3.67;;;8.60;1.00;;;;;;5091935;28;20213;-77
2021/10/13 04:39:34;;;;;;;6.93;4.07;;;8.50;1.00;;;;;;5091191;28;20271;-77
2021/10/13 04:42:01;;;;;;;4.20;3.70;;;8.40;1.00;;;;;;5091405;28;20681;-77
2021/10/13 04:44:28;;;;;;;6.30;3.63;;;8.50;1.00;;;;;;5091890;28;20213;-77
2021/10/13 04:46:55;;;;;;;5.40;4.10;;;8.50;1.00;;;;;;5091857;28;20286;-77
2021/10/13 04:49:23;;;;;;;4.13;3.67;;;8.50;1.00;;;;;;5091854;28;20229;-77
2021/10/13 04:51:50;;;;;;;4.20;3.80;;;8.50;1.00;;;;;;5091153;28;20251;-77
2021/10/13 04:54:19;;;;;;;6.33;4.13;;;8.40;1.00;;;;;;5091218;28;20205;-77
2021/10/13 04:56:46;;;;;;;6.50;4.13;;;8.40;1.00;;;;;;5090928;28;20210;-77
2021/10/13 04:59:13;;;;;;;7.03;3.87;;;8.40;1.00;;;;;;5090502;28;20677;-75
2021/10/13 05:01:39;;;;;;;8.07;3.60;;;8.40;1.00;;;;;;5091127;28;20206;-75
2021/10/13 05:04:06;;;;;;;4.10;3.70;;;8.40;1.00;;;;;;5091199;28;20205;-75
2021/10/13 05:06:35;;;;;;;6.70;3.70;;;8.40;1.00;;;;;;5090883;28;20247;-73
2021/10/13 05:09:02;;;;;;;5.60;4.50;;;8.40;1.00;;;;;;5091054;28;20283;-73
2021/10/13 05:11:29;;;;;;;5.50;4.93;;;8.40;1.00;;;;;;5081628;28;20666;-74
2021/10/13 05:13:56;;;;;;;5.10;4.27;;;8.40;1.00;;;;;;5086775;28;20266;-74
2021/10/13 05:16:23;;;;;;;6.17;3.87;;;8.40;1.00;;;;;;5091384;28;20198;-75
2021/10/13 05:18:50;;;;;;;7.60;4.27;;;8.50;1.00;;;;;;5090875;28;20262;-74
2021/10/13 05:21:17;;;;;;;5.80;4.13;;;8.50;1.00;;;;;;5090599;28;20687;-74
2021/10/13 05:23:45;;;;;;;6.23;3.67;;;8.40;1.00;;;;;;5090777;28;20205;-74
2021/10/13 05:26:12;;;;;;;5.80;4.23;;;8.50;1.00;;;;;;5090602;28;20574;-74
2021/10/13 05:28:39;;;;;;;8.97;4.30;;;8.50;1.00;;;;;;5090717;28;20202;-74
2021/10/13 05:31:06;;;;;;;6.47;3.90;;;8.50;1.00;;;;;;5090894;28;21525;-75
2021/10/13 05:33:33;;;;;;;7.60;5.70;;;8.60;1.00;;;;;;5090680;28;20201;-76
2021/10/13 05:36:00;;;;;;;5.77;4.27;;;8.50;1.00;;;;;;5090285;28;20258;-73
2021/10/13 05:38:27;;;;;;;7.67;3.67;;;8.50;1.00;;;;;;5090847;28;20254;-74
2021/10/13 05:40:55;;;;;;;4.73;3.80;;;8.50;1.00;;;;;;5090996;28;20201;-74
2021/10/13 05:43:22;;;;;;;8.60;4.13;;;8.50;1.00;;;;;;5088655;28;20300;-75
2021/10/13 05:45:49;;;;;;;6.00;4.27;;;8.40;1.00;;;;;;5078330;28;20677;-75
2021/10/13 05:48:17;;;;;;;4.93;4.43;;;8.30;1.00;;;;;;5090671;28;20205;-74
2021/10/13 05:50:44;;;;;;;4.43;4.03;;;8.20;1.00;;;;;;5089821;28;20860;-74
2021/10/13 05:53:11;;;;;;;8.13;5.40;;;8.20;1.00;;;;;;5090541;28;20223;-74
2021/10/13 05:55:38;;;;;;;7.40;5.30;;;8.10;1.00;;;;;;5090189;28;20210;-74
2021/10/13 05:58:06;;;;;;;7.70;4.70;;;8.00;1.00;;;;;;5090776;28;20576;-74
2021/10/13 06:00:34;;;;;;;6.10;5.00;;;8.10;1.00;;;;;;5090004;28;20198;-74
2021/10/13 06:03:01;;;;;;;10.87;5.67;;;8.10;1.00;;;;;;5090483;28;20201;-74
2021/10/13 06:05:28;;;;;;;7.60;4.90;;;8.00;1.00;;;;;;5090536;28;20255;-73
2021/10/13 06:07:55;;;;;;;6.27;5.37;;;7.90;1.00;;;;;;5090657;28;20205;-73
2021/10/13 06:10:22;;;;;;;9.37;5.10;;;7.90;1.00;;;;;;5090272;28;20720;-73
2021/10/13 06:12:49;;;;;;;8.97;5.30;;;7.90;1.00;;;;;;5080466;28;20282;-73
2021/10/13 06:15:19;;;;;;;7.20;4.67;;;7.90;1.00;;;;;;5094763;28;20258;-73
2021/10/13 06:17:47;;;;;;;8.53;5.10;;;7.90;1.00;;;;;;5094077;28;20202;-73
2021/10/13 06:20:14;;;;;;;9.07;5.07;;;8.00;1.00;;;;;;5094102;28;20282;-73
2021/10/13 06:22:41;;;;;;;9.37;4.70;;;8.00;1.00;;;;;;5093672;28;20202;-73
2021/10/13 06:25:10;;;;;;;6.80;4.90;;;7.80;1.00;;;;;;5094466;28;20262;-73
2021/10/13 06:27:37;;;;;;;5.70;5.07;;;7.80;1.00;;;;;;5093758;28;20240;-74
2021/10/13 06:30:04;;;;;;;6.27;4.93;;;7.80;1.00;;;;;;5094194;28;20233;-75
2021/10/13 06:32:33;;;;;;;7.40;5.50;;;7.80;1.00;;;;;;5093843;28;20205;-75
2021/10/13 06:35:00;;;;;;;9.33;5.83;;;7.90;1.00;;;;;;5093863;28;20686;-75
2021/10/13 06:37:26;;;;;;;11.87;6.47;;;7.90;1.00;;;;;;5094183;28;20221;-76
2021/10/13 06:39:53;;;;;;;9.67;6.20;;;7.80;1.00;;;;;;5093936;28;20247;-76
2021/10/13 06:42:20;;;;;;;8.60;5.87;;;7.80;1.00;;;;;;5093976;28;20625;-77
2021/10/13 06:44:47;;;;;;;8.77;5.60;;;7.90;1.00;;;;;;5093320;28;20262;-75
2021/10/13 06:47:14;;;;;;;6.47;5.33;;;8.10;1.00;;;;;;5093623;28;20673;-75
2021/10/13 06:49:43;;;;;;;11.30;6.37;;;8.20;1.00;;;;;;5093553;28;20286;-75
2021/10/13 06:52:10;;;;;;;7.60;5.70;;;8.30;1.00;;;;;;5093516;28;20202;-75
2021/10/13 06:54:37;;;;;;;10.30;5.37;;;8.30;1.00;;;;;;5093550;28;20669;-75
2021/10/13 06:57:04;;;;;;;11.63;5.10;;;8.40;1.00;;;;;;5093409;28;20721;-76
2021/10/13 06:59:31;;;;;;;10.83;5.70;;;8.50;1.00;;;;;;5093346;28;20255;-76
2021/10/13 07:01:57;;;;;;;5.53;4.60;;;8.60;1.00;;;;;;5093525;28;20673;-76
2021/10/13 07:04:24;;;;;;;8.57;5.43;;;8.60;1.00;;;;;;5094038;28;20197;-75
2021/10/13 07:06:54;;;;;;;8.50;7.03;;;8.80;1.00;;;;;;5080092;28;20641;-75
2021/10/13 07:09:21;;;;;;;7.60;4.97;;;8.80;1.00;;;;;;5074459;28;20240;-75
2021/10/13 07:11:48;;;;;;;10.30;5.67;;;8.80;1.00;;;;;;5074345;28;20260;-76
2021/10/13 07:14:15;;;;;;;7.20;6.23;;;8.90;1.00;;;;;;5073275;28;20214;-76
2021/10/13 07:16:42;;;;;;;13.67;5.50;;;9.10;1.00;;;;;;5067923;28;20220;-77
2021/10/13 07:19:09;;;;;;;8.23;5.57;;;9.10;1.00;;;;;;5086325;28;20202;-79
2021/10/13 07:21:36;;;;;;;9.83;5.60;;;9.40;1.00;;;;;;5085818;28;20212;-77
2021/10/13 07:24:05;;;;;;;5.43;4.90;;;9.50;1.00;;;;;;5086380;28;20203;-79
2021/10/13 07:26:34;;;;;;;7.47;5.50;;;9.60;1.00;;;;;;5089889;28;20202;-77
2021/10/13 07:29:01;;;;;;;7.97;5.40;;;9.60;1.00;;;;;;5087010;28;20209;-77
2021/10/13 07:31:28;;;;;;;6.97;6.23;;;9.90;1.00;;;;;;5090188;28;20205;-77
2021/10/13 07:33:55;;;;;;;8.50;6.07;;;9.90;1.00;;;;;;5089303;28;20656;-78
2021/10/13 07:36:23;;;;;;;8.23;5.60;;;9.80;1.00;;;;;;5081529;28;20207;-75
2021/10/13 07:38:50;;;;;;;8.90;6.27;;;9.70;1.00;;;;;;5072171;28;20214;-77
2021/10/13 07:41:19;;;;;;;10.93;6.00;;;9.80;1.00;;;;;;5067415;28;20240;-79
2021/10/13 07:43:46;;;;;;;10.70;7.43;;;9.80;1.00;;;;;;5079561;28;20205;-73
2021/10/13 07:46:13;;;;;;;10.93;7.03;;;9.80;1.00;;;;;;5084969;28;20249;-79
2021/10/13 07:48:40;;;;;;;15.97;6.73;;;9.80;1.00;;;;;;5089775;28;20262;-75
2021/10/13 07:51:08;;;;;;;9.80;6.80;;;10.10;1.00;;;;;;5092354;28;20229;-81
2021/10/13 07:53:35;;;;;;;10.73;7.37;;;10.20;1.00;;;;;;5092128;28;20214;-80
2021/10/13 07:56:02;;;;;;;14.30;9.10;;;10.30;1.00;;;;;;5068653;28;20202;-74
2021/10/13 07:58:30;;;;;;;13.00;8.03;;;10.50;1.00;;;;;;5074869;28;20239;-76
2021/10/13 08:00:57;;;;;;;11.90;7.87;;;10.80;1.00;;;;;;5075049;28;20739;-77
2021/10/13 08:03:24;;;;;;;11.47;7.50;;;10.90;1.00;;;;;;5075272;28;20210;-76
2021/10/13 08:05:51;;;;;;;10.17;7.30;;;11.10;1.00;;;;;;5077136;28;20201;-77
2021/10/13 08:08:18;;;;;;;11.80;6.93;;;11.00;1.00;;;;;;5066816;28;20202;-74
2021/10/13 08:10:45;;;;;;;9.80;6.07;;;10.90;1.00;;;;;;5068697;28;20705;-75
2021/10/13 08:13:12;;;;;;;9.63;6.87;;;10.90;1.00;;;;;;5065839;28;20662;-81
2021/10/13 08:15:41;;;;;;;13.27;5.17;;;11.00;1.00;;;;;;5070802;28;20210;-72
2021/10/13 08:18:08;;;;;;;5.93;4.23;;;11.10;1.00;;;;;;5075128;28;20255;-75
2021/10/13 08:20:34;;;;;;;5.23;4.10;;;11.20;1.00;;;;;;5074099;28;20264;-74
2021/10/13 08:23:01;;;;;;;5.57;3.60;;;11.40;1.00;;;;;;5076575;28;20662;-75
2021/10/13 08:25:29;;;;;;;6.93;4.10;;;11.50;1.00;;;;;;5074581;28;20636;-78
2021/10/13 08:27:56;;;;;;;4.20;3.30;;;11.50;1.00;;;;;;5077119;28;20255;-72
2021/10/13 08:30:23;;;;;;;8.40;3.83;;;11.70;1.00;;;;;;5067929;28;20226;-75
2021/10/13 08:32:51;;;;;;;5.80;4.10;;;11.70;1.00;;;;;;5070855;28;20205;-69
2021/10/13 08:35:18;;;;;;;9.70;5.33;;;11.70;1.00;;;;;;5061446;28;20720;-76
2021/10/13 08:37:45;;;;;;;3.67;3.27;;;11.70;1.00;;;;;;5078844;28;20686;-69
2021/10/13 08:40:12;;;;;;;6.27;3.77;;;11.80;1.00;;;;;;5081742;28;20632;-75
2021/10/13 08:42:52;;;;;;;6.33;3.37;;;11.90;1.00;;;;;;5085026;28;20209;-76
2021/10/13 08:45:19;;;;;;;5.67;3.90;;;12.00;1.00;;;;;;5090921;28;20209;-77
2021/10/13 08:47:46;;;;;;;4.17;3.27;;;12.10;1.00;;;;;;5090438;28;20274;-70
2021/10/13 08:50:15;;;;;;;4.43;3.33;;;12.10;1.00;;;;;;5090925;28;20229;-77
2021/10/13 08:52:42;;;;;;;5.63;3.63;;;12.20;1.00;;;;;;5069569;28;20626;-70
2021/10/13 08:55:09;;;;;;;3.87;3.00;;;12.30;1.00;;;;;;5064364;28;20269;-73
2021/10/13 08:57:36;;;;;;;6.60;3.40;;;12.40;1.00;;;;;;5059653;28;20198;-70
2021/10/13 09:00:04;;;;;;;4.33;3.03;;;12.50;1.00;;;;;;5056978;28;20206;-70
2021/10/13 09:02:40;;;;;;;8.98;4.18;;;12.60;1.00;;;;;;5064169;28;20267;-70
2021/10/13 09:05:11;;;;;;;9.02;4.15;;;12.70;99.90;;;;;;5087857;28;20240;-69
2021/10/13 09:07:41;;;;;;;6.80;3.37;;;12.80;99.90;;;;;;5087959;28;20206;-69
2021/10/13 09:10:08;;;;;;;6.30;2.85;;;12.90;99.90;;;;;;5090607;28;20229;-77
2021/10/13 09:12:37;;;;;;;7.33;3.60;;;13.10;99.90;;;;;;5090638;28;20622;-69
2021/10/13 09:15:11;;;;;;;6.00;2.77;;;13.30;99.90;;;;;;5090280;28;20804;-70
2021/10/13 09:17:55;;;;;;;3.42;2.72;;;13.40;99.90;;;;;;5090098;28;20204;-76
2021/10/13 09:20:25;;;;;;;4.25;2.67;;;13.40;99.90;;;;;;5091265;28;20212;-76
2021/10/13 09:22:58;;;;;;;4.60;2.67;;;13.40;99.90;;;;;;5090409;28;20255;-73
2021/10/13 09:25:25;;;;;;;3.17;2.67;;;13.40;99.90;;;;;;5091102;28;20634;-70
2021/10/13 09:27:52;;;;;;;4.43;3.33;;;13.50;99.90;;;;;;5089974;28;20206;-74
2021/10/13 09:30:27;;;;;;;4.85;3.03;;;13.60;99.90;;;;;;5090942;28;20810;-76
2021/10/13 09:32:54;;;;;;;6.35;2.90;;;13.90;99.90;;;;;;5091107;28;20200;-73
2021/10/13 09:35:28;;;;;;;6.65;2.97;;;14.10;99.90;;;;;;5090968;28;20279;-71
2021/10/13 09:37:57;;;;;;;2.70;2.50;;;14.10;99.90;;;;;;5090894;28;20213;-72
2021/10/13 09:40:28;;;;;;;4.70;2.63;;;14.20;99.90;;;;;;5090834;28;20247;-77
2021/10/13 09:42:58;;;;;;;3.25;2.42;;;14.20;99.90;;;;;;5090950;28;20209;-72
2021/10/13 09:45:27;;;;;;;3.20;2.90;;;14.20;99.90;;;;;;5090321;28;20241;-71
2021/10/13 09:48:01;;;;;;;5.20;3.88;;;14.40;99.90;;;;;;5091269;28;20205;-71
2021/10/13 09:50:47;;;;;;;4.43;2.83;;;14.50;99.90;;;;;;5090523;28;20220;-71
2021/10/13 09:53:21;;;;;;;3.78;2.95;;;14.80;99.90;;;;;;5090726;28;20205;-70
2021/10/13 09:55:48;;;;;;;3.85;2.28;;;15.20;99.90;;;;;;5090266;28;20210;-76
2021/10/13 09:58:25;;;;;;;3.15;2.20;;;16.10;99.90;;;;;;5090220;28;20209;-70
2021/10/13 10:01:09;;;;;;;3.70;2.42;;;17.70;99.90;;;;;;5090255;28;20611;-72
2021/10/13 10:03:36;;;;;;;3.53;2.67;;;17.00;99.90;;;;;;5089902;28;20296;-77
2021/10/13 10:06:05;;;;;;;9.35;2.90;;;17.20;99.90;;;;;;5090726;28;20247;-77
2021/10/13 10:09:00;;;;;;;2.55;2.35;;;18.10;99.90;;;;;;5090198;28;20201;-78
2021/10/13 10:11:31;;;;;;;4.60;2.13;;;19.40;99.90;;;;;;5068171;28;20222;-78
2021/10/13 10:13:59;;;;;;;6.05;2.83;;;19.70;99.90;;;;;;5090603;28;20262;-77
2021/10/13 10:16:31;;;;;;;7.55;3.25;;;17.70;99.90;;;;;;5090738;28;20197;-74
2021/10/13 10:19:20;;;;;;;3.83;2.35;;;16.60;99.90;;;;;;5090611;28;20230;-70
2021/10/13 10:21:52;;;;;;;6.80;2.63;;;16.10;99.90;;;;;;5090013;28;20255;-74
2021/10/13 10:24:31;;;;;;;2.42;1.88;;;15.80;99.90;;;;;;5089928;28;20668;-78
2021/10/13 10:27:35;;;;;;;10.98;2.53;;;15.80;99.90;;;;;;5090492;28;20277;-77
2021/10/13 10:30:18;;;;;;;7.95;1.98;;;15.90;99.90;;;;;;5090100;28;20198;-77
2021/10/13 10:32:46;;;;;;;5.75;2.38;;;15.90;99.90;;;;;;5088433;28;20304;-76
2021/10/13 10:35:15;;;;;;;3.72;2.40;;;15.90;99.90;;;;;;5090497;28;20206;-72
2021/10/13 10:37:44;;;;;;;5.57;2.38;;;16.00;99.90;;;;;;5089363;28;20258;-79
2021/10/13 10:40:15;;;;;;;5.57;2.15;;;16.00;99.90;;;;;;5090232;28;20257;-76
2021/10/13 10:42:56;;;;;;;6.05;2.17;;;15.90;99.90;;;;;;5089460;28;20206;-72
2021/10/13 10:45:26;;;;;;;2.90;2.17;;;15.90;99.90;;;;;;5090020;28;20208;-73
2021/10/13 10:48:20;;;;;;;5.13;2.90;;;15.90;99.90;;;;;;5090199;28;20205;-77
2021/10/13 10:51:01;;;;;;;4.57;2.00;;;16.00;99.90;;;;;;5064904;28;20262;-80
2021/10/13 10:53:33;;;;;;;5.53;2.60;;;16.30;99.90;;;;;;5090395;28;20263;-78
2021/10/13 10:56:25;;;;;;;2.53;2.10;;;16.40;99.90;;;;;;5089770;28;20553;-77
2021/10/13 10:59:08;;;;;;;2.70;1.75;;;16.40;99.90;;;;;;5091778;28;20654;-76
2021/10/13 11:01:36;;;;;;;4.55;2.60;;;16.30;99.90;;;;;;5091880;28;20213;-74
2021/10/13 11:04:12;;;;;;;5.53;1.83;;;16.50;99.90;;;;;;5093587;28;20206;-77
2021/10/13 11:06:40;;;;;;;3.70;2.90;;;16.20;99.90;;;;;;5093380;28;20718;-78
2021/10/13 11:09:10;;;;;;;4.80;2.28;;;16.30;99.90;;;;;;5093345;28;20247;-78
2021/10/13 11:11:41;;;;;;;4.97;2.00;;;16.50;99.90;;;;;;5092954;28;20225;-79
2021/10/13 11:14:11;;;;;;;3.58;2.40;;;16.70;99.90;;;;;;5093110;28;20333;-71
2021/10/13 11:16:40;;;;;;;3.75;1.88;;;16.70;99.90;;;;;;5093283;28;20240;-80
2021/10/13 11:19:09;;;;;;;3.95;1.92;;;16.70;99.90;;;;;;5093295;28;20214;-71
2021/10/13 11:21:36;;;;;;;3.28;2.05;;;16.60;99.90;;;;;;5093184;28;20209;-71
2021/10/13 11:24:04;;;;;;;3.17;1.85;;;16.60;99.90;;;;;;5092822;28;20205;-71
2021/10/13 11:26:30;;;;;;;4.68;1.98;;;16.80;99.90;;;;;;5092947;28;20632;-72
2021/10/13 11:28:59;;;;;;;2.33;1.65;;;16.80;99.90;;;;;;5093704;28;20209;-71
2021/10/13 11:31:26;;;;;;;6.22;1.65;;;16.80;99.90;;;;;;5093326;28;20255;-70
2021/10/13 11:34:05;;;;;;;2.13;1.65;;;16.90;99.90;;;;;;5092911;28;20805;-71
2021/10/13 11:36:32;;;;;;;2.42;1.70;;;16.90;99.90;;;;;;5092324;28;20197;-70
2021/10/13 11:38:59;;;;;;;3.35;1.67;;;17.00;99.90;;;;;;5092458;28;20680;-70
2021/10/13 11:41:31;;;;;;;3.67;2.00;;;16.90;99.90;;;;;;5092928;28;20206;-70
2021/10/13 11:44:06;;;;;;;4.60;1.83;;;17.10;99.90;;;;;;5093188;28;20255;-70
2021/10/13 11:46:33;;;;;;;2.90;1.83;;;17.10;99.90;;;;;;5092330;28;20223;-71
2021/10/13 11:49:04;;;;;;;3.83;1.60;;;17.20;99.90;;;;;;5086289;28;20674;-79
2021/10/13 11:51:31;;;;;;;6.18;2.13;;;17.20;99.90;;;;;;5085293;28;20312;-76
2021/10/13 11:53:58;;;;;;;1.35;1.10;;;17.20;99.90;;;;;;5092724;28;20259;-77
2021/10/13 11:56:26;;;;;;;3.03;1.60;;;17.30;99.90;;;;;;5092895;28;20213;-70
2021/10/13 11:59:10;;;;;;;3.20;1.75;;;17.30;99.90;;;;;;5091939;28;20734;-71
2021/10/13 12:01:39;;;;;;;3.65;2.00;;;17.30;99.90;;;;;;5092305;28;20206;-71
2021/10/13 12:04:11;;;;;;;3.67;1.48;;;17.20;99.90;;;;;;5092130;28;20216;-77
2021/10/13 12:06:42;;;;;;;3.42;1.45;;;17.20;99.90;;;;;;5092332;28;20217;-71
2021/10/13 12:09:09;;;;;;;5.53;2.03;;;17.20;99.90;;;;;;5091724;28;20224;-72
2021/10/13 12:11:38;;;;;;;2.85;1.60;;;17.10;99.90;;;;;;5092001;28;20239;-70
2021/10/13 12:14:11;;;;;;;3.30;1.50;;;17.10;99.90;;;;;;5092289;28;20296;-70
2021/10/13 12:16:41;;;;;;;1.83;1.20;;;17.40;99.90;;;;;;5091957;28;20300;-71
2021/10/13 12:19:15;;;;;;;3.83;1.98;;;17.30;99.90;;;;;;5091989;28;20205;-70
2021/10/13 12:21:57;;;;;;;2.80;1.45;;;17.30;99.90;;;;;;5091417;28;20255;-71
2021/10/13 12:24:24;;;;;;;3.35;1.58;;;17.30;99.90;;;;;;5092169;28;20201;-70
2021/10/13 12:26:51;;;;;;;2.03;1.33;;;17.30;99.90;;;;;;5091563;28;20231;-71
2021/10/13 12:29:18;;;;;;;1.92;1.55;;;17.40;99.90;;;;;;5092011;28;20213;-78
2021/10/13 12:31:47;;;;;;;2.08;0.95;;;17.50;99.90;;;;;;5091527;28;20245;-72
2021/10/13 12:34:16;;;;;;;4.53;1.25;;;17.50;99.90;;;;;;5092056;28;20262;-80
2021/10/13 12:36:44;;;;;;;2.90;1.55;;;17.50;99.90;;;;;;5091110;28;20222;-70
2021/10/13 12:39:15;;;;;;;1.70;1.48;;;17.60;99.90;;;;;;5091662;28;20210;-70
2021/10/13 12:41:44;;;;;;;2.70;1.20;;;17.50;99.90;;;;;;5091343;28;20296;-75
2021/10/13 12:44:16;;;;;;;1.80;1.13;;;17.70;99.90;;;;;;5092050;28;20272;-78
2021/10/13 12:46:55;;;;;;;3.17;1.20;;;17.90;99.90;;;;;;5091405;28;20263;-70
2021/10/13 12:49:24;;;;;;;1.77;0.98;;;18.00;99.90;;;;;;5091806;28;20284;-81
2021/10/13 12:51:53;;;;;;;1.67;1.00;;;18.00;99.90;;;;;;5090786;28;20247;-79
2021/10/13 12:54:20;;;;;;;2.90;1.20;;;17.80;99.90;;;;;;5091576;28;20239;-70
2021/10/13 12:56:47;;;;;;;2.22;1.15;;;17.80;99.90;;;;;;5091140;28;20201;-71
2021/10/13 12:59:14;;;;;;;1.98;1.23;;;17.90;99.90;;;;;;5091513;28;20246;-71
2021/10/13 13:01:41;;;;;;;3.83;1.27;;;17.70;99.90;;;;;;5091114;28;20228;-70
2021/10/13 13:04:10;;;;;;;3.08;1.38;;;17.50;99.90;;;;;;5091376;28;20201;-70
2021/10/13 13:06:37;;;;;;;1.45;1.27;;;17.40;99.90;;;;;;5090513;28;20258;-75
2021/10/13 13:09:04;;;;;;;3.90;1.42;;;17.60;99.90;;;;;;5091236;28;20254;-79